Terminal Aerodrome Forecast
Issued by NWS

Home | Current Version | Previous Version | Text Only | Print | Product List | Glossary On
Versions: 1 2 3 4 5 6 7 8 9 10 11 12 13 14 15 16 17 18 19 20 21 22 23 24 25 26 27 28 29 30
000
FTUS41 KBOX 242339
TAFBED
TAF
KBED 242339Z 2500/2524 34004KT 3SM RA BR SCT003 OVC007
      WS020/19030KT
     FM250300 18009KT 1SM -RA BR OVC008
     FM250500 19012KT 2SM -RA BR OVC008
     FM250700 20013G21KT 1SM -RA BR OVC008
     FM251100 22012G21KT 2SM -RA BR OVC015
     FM251300 22013G22KT 3SM -RA OVC070
     FM251500 24014G23KT P6SM BKN250=

USA.gov is the U.S. government's official web portal to all federal, state and local government web resources and services.